sensor_id;sensor_type;location;lat;lon;timestamp;P1;durP1;ratioP1;P2;durP2;ratioP2
14734;SDS011;7458;49.002;8.472;2023-04-28T00:00:28;8.88;;;5.05;;
14734;SDS011;7458;49.002;8.472;2023-04-28T00:02:54;7.28;;;5.32;;
14734;SDS011;7458;49.002;8.472;2023-04-28T00:05:20;7.90;;;6.38;;
14734;SDS011;7458;49.002;8.472;2023-04-28T00:07:47;7.57;;;5.93;;
14734;SDS011;7458;49.002;8.472;2023-04-28T00:10:13;6.53;;;5.40;;
14734;SDS011;7458;49.002;8.472;2023-04-28T00:12:39;6.43;;;4.80;;
14734;SDS011;7458;49.002;8.472;2023-04-28T00:15:05;7.47;;;5.45;;
14734;SDS011;7458;49.002;8.472;2023-04-28T00:17:33;12.20;;;6.60;;
14734;SDS011;7458;49.002;8.472;2023-04-28T00:19:59;6.88;;;5.50;;
14734;SDS011;7458;49.002;8.472;2023-04-28T00:22:25;6.55;;;5.10;;
14734;SDS011;7458;49.002;8.472;2023-04-28T00:24:51;8.07;;;6.25;;
14734;SDS011;7458;49.002;8.472;2023-04-28T00:27:17;8.55;;;5.13;;
14734;SDS011;7458;49.002;8.472;2023-04-28T00:29:44;6.40;;;5.70;;
14734;SDS011;7458;49.002;8.472;2023-04-28T00:32:10;6.47;;;5.40;;
14734;SDS011;7458;49.002;8.472;2023-04-28T00:34:37;8.00;;;5.88;;
14734;SDS011;7458;49.002;8.472;2023-04-28T00:37:03;9.20;;;4.70;;
14734;SDS011;7458;49.002;8.472;2023-04-28T00:39:29;14.05;;;5.03;;
14734;SDS011;7458;49.002;8.472;2023-04-28T00:41:55;5.38;;;4.20;;
14734;SDS011;7458;49.002;8.472;2023-04-28T00:44:21;6.15;;;4.90;;
14734;SDS011;7458;49.002;8.472;2023-04-28T00:46:47;5.47;;;4.68;;
14734;SDS011;7458;49.002;8.472;2023-04-28T00:49:14;10.15;;;4.63;;
14734;SDS011;7458;49.002;8.472;2023-04-28T00:51:41;10.40;;;4.40;;
14734;SDS011;7458;49.002;8.472;2023-04-28T00:54:06;7.78;;;4.93;;
14734;SDS011;7458;49.002;8.472;2023-04-28T00:56:33;8.55;;;4.70;;
14734;SDS011;7458;49.002;8.472;2023-04-28T00:59:00;7.68;;;5.82;;
14734;SDS011;7458;49.002;8.472;2023-04-28T01:01:25;5.18;;;4.20;;
14734;SDS011;7458;49.002;8.472;2023-04-28T01:03:52;12.95;;;5.43;;
14734;SDS011;7458;49.002;8.472;2023-04-28T01:06:18;6.72;;;4.63;;
14734;SDS011;7458;49.002;8.472;2023-04-28T01:08:46;5.15;;;3.95;;
14734;SDS011;7458;49.002;8.472;2023-04-28T01:11:14;5.00;;;4.50;;
14734;SDS011;7458;49.002;8.472;2023-04-28T01:13:41;6.72;;;4.10;;
14734;SDS011;7458;49.002;8.472;2023-04-28T01:16:06;7.25;;;4.95;;
14734;SDS011;7458;49.002;8.472;2023-04-28T01:18:34;10.38;;;5.07;;
14734;SDS011;7458;49.002;8.472;2023-04-28T01:21:11;7.03;;;4.53;;
14734;SDS011;7458;49.002;8.472;2023-04-28T01:23:37;7.97;;;5.10;;
14734;SDS011;7458;49.002;8.472;2023-04-28T01:26:03;5.68;;;4.53;;
14734;SDS011;7458;49.002;8.472;2023-04-28T01:28:29;5.88;;;4.80;;
14734;SDS011;7458;49.002;8.472;2023-04-28T01:30:55;8.15;;;5.43;;
14734;SDS011;7458;49.002;8.472;2023-04-28T01:33:21;8.55;;;5.68;;
14734;SDS011;7458;49.002;8.472;2023-04-28T01:35:47;5.60;;;4.90;;
14734;SDS011;7458;49.002;8.472;2023-04-28T01:38:13;6.78;;;5.53;;
14734;SDS011;7458;49.002;8.472;2023-04-28T01:40:38;11.95;;;5.53;;
14734;SDS011;7458;49.002;8.472;2023-04-28T01:43:04;7.43;;;5.45;;
14734;SDS011;7458;49.002;8.472;2023-04-28T01:45:31;7.80;;;5.20;;
14734;SDS011;7458;49.002;8.472;2023-04-28T01:47:56;8.10;;;5.85;;
14734;SDS011;7458;49.002;8.472;2023-04-28T01:50:22;5.80;;;5.25;;
14734;SDS011;7458;49.002;8.472;2023-04-28T01:52:48;8.88;;;5.30;;
14734;SDS011;7458;49.002;8.472;2023-04-28T01:55:13;7.07;;;4.88;;
14734;SDS011;7458;49.002;8.472;2023-04-28T01:57:39;7.25;;;5.35;;
14734;SDS011;7458;49.002;8.472;2023-04-28T02:00:05;6.35;;;5.15;;
14734;SDS011;7458;49.002;8.472;2023-04-28T02:02:32;10.43;;;5.43;;
14734;SDS011;7458;49.002;8.472;2023-04-28T02:04:58;7.38;;;5.45;;
14734;SDS011;7458;49.002;8.472;2023-04-28T02:07:24;6.18;;;5.05;;
14734;SDS011;7458;49.002;8.472;2023-04-28T02:09:50;5.00;;;4.50;;
14734;SDS011;7458;49.002;8.472;2023-04-28T02:12:16;7.78;;;5.03;;
14734;SDS011;7458;49.002;8.472;2023-04-28T02:14:42;6.13;;;4.55;;
14734;SDS011;7458;49.002;8.472;2023-04-28T02:17:07;10.43;;;6.60;;
14734;SDS011;7458;49.002;8.472;2023-04-28T02:19:33;7.15;;;5.35;;
14734;SDS011;7458;49.002;8.472;2023-04-28T02:21:59;7.82;;;7.03;;
14734;SDS011;7458;49.002;8.472;2023-04-28T02:24:25;9.85;;;6.80;;
14734;SDS011;7458;49.002;8.472;2023-04-28T02:26:51;8.88;;;6.53;;
14734;SDS011;7458;49.002;8.472;2023-04-28T02:29:17;7.25;;;5.97;;
14734;SDS011;7458;49.002;8.472;2023-04-28T02:31:43;10.45;;;6.28;;
14734;SDS011;7458;49.002;8.472;2023-04-28T02:34:09;9.23;;;5.63;;
14734;SDS011;7458;49.002;8.472;2023-04-28T02:36:35;7.55;;;5.55;;
14734;SDS011;7458;49.002;8.472;2023-04-28T02:39:02;5.90;;;5.00;;
14734;SDS011;7458;49.002;8.472;2023-04-28T02:41:28;9.73;;;5.55;;
14734;SDS011;7458;49.002;8.472;2023-04-28T02:43:55;8.90;;;6.00;;
14734;SDS011;7458;49.002;8.472;2023-04-28T02:46:21;8.43;;;5.65;;
14734;SDS011;7458;49.002;8.472;2023-04-28T02:48:46;7.20;;;5.40;;
14734;SDS011;7458;49.002;8.472;2023-04-28T02:51:12;7.60;;;5.68;;
14734;SDS011;7458;49.002;8.472;2023-04-28T02:53:38;6.50;;;5.15;;
14734;SDS011;7458;49.002;8.472;2023-04-28T02:56:04;11.10;;;5.95;;
14734;SDS011;7458;49.002;8.472;2023-04-28T02:58:30;5.03;;;4.35;;
14734;SDS011;7458;49.002;8.472;2023-04-28T03:00:56;7.15;;;4.65;;
14734;SDS011;7458;49.002;8.472;2023-04-28T03:03:22;5.45;;;4.45;;
14734;SDS011;7458;49.002;8.472;2023-04-28T03:05:48;8.65;;;4.70;;
14734;SDS011;7458;49.002;8.472;2023-04-28T03:08:14;4.63;;;4.10;;
14734;SDS011;7458;49.002;8.472;2023-04-28T03:10:40;5.63;;;4.63;;
14734;SDS011;7458;49.002;8.472;2023-04-28T03:13:06;5.20;;;4.28;;
14734;SDS011;7458;49.002;8.472;2023-04-28T03:15:31;9.13;;;4.78;;
14734;SDS011;7458;49.002;8.472;2023-04-28T03:17:57;6.88;;;4.53;;
14734;SDS011;7458;49.002;8.472;2023-04-28T03:20:23;6.10;;;4.25;;
14734;SDS011;7458;49.002;8.472;2023-04-28T03:22:49;5.45;;;4.63;;
14734;SDS011;7458;49.002;8.472;2023-04-28T03:25:15;6.90;;;5.47;;
14734;SDS011;7458;49.002;8.472;2023-04-28T03:27:41;6.13;;;4.70;;
14734;SDS011;7458;49.002;8.472;2023-04-28T03:30:07;5.97;;;5.38;;
14734;SDS011;7458;49.002;8.472;2023-04-28T03:32:34;5.70;;;4.75;;
14734;SDS011;7458;49.002;8.472;2023-04-28T03:35:00;10.05;;;4.32;;
14734;SDS011;7458;49.002;8.472;2023-04-28T03:37:25;8.90;;;4.93;;
14734;SDS011;7458;49.002;8.472;2023-04-28T03:39:51;7.47;;;4.97;;
14734;SDS011;7458;49.002;8.472;2023-04-28T03:42:17;6.15;;;4.97;;
14734;SDS011;7458;49.002;8.472;2023-04-28T03:44:43;6.88;;;4.85;;
14734;SDS011;7458;49.002;8.472;2023-04-28T03:47:08;8.93;;;5.40;;
14734;SDS011;7458;49.002;8.472;2023-04-28T03:49:34;7.07;;;5.47;;
14734;SDS011;7458;49.002;8.472;2023-04-28T03:52:00;7.10;;;4.95;;
14734;SDS011;7458;49.002;8.472;2023-04-28T03:54:28;11.43;;;6.15;;
14734;SDS011;7458;49.002;8.472;2023-04-28T03:56:54;6.88;;;4.95;;
14734;SDS011;7458;49.002;8.472;2023-04-28T03:59:19;7.05;;;5.30;;
14734;SDS011;7458;49.002;8.472;2023-04-28T04:01:45;8.70;;;5.00;;
14734;SDS011;7458;49.002;8.472;2023-04-28T04:04:11;9.65;;;5.25;;
14734;SDS011;7458;49.002;8.472;2023-04-28T04:06:37;5.85;;;5.15;;
14734;SDS011;7458;49.002;8.472;2023-04-28T04:09:03;6.93;;;5.13;;
14734;SDS011;7458;49.002;8.472;2023-04-28T04:11:28;5.72;;;4.95;;
14734;SDS011;7458;49.002;8.472;2023-04-28T04:13:54;6.07;;;5.47;;
14734;SDS011;7458;49.002;8.472;2023-04-28T04:16:20;8.27;;;5.78;;
14734;SDS011;7458;49.002;8.472;2023-04-28T04:18:46;10.18;;;6.22;;
14734;SDS011;7458;49.002;8.472;2023-04-28T04:21:12;9.95;;;6.38;;
14734;SDS011;7458;49.002;8.472;2023-04-28T04:23:38;6.97;;;5.05;;
14734;SDS011;7458;49.002;8.472;2023-04-28T04:26:04;6.40;;;4.82;;
14734;SDS011;7458;49.002;8.472;2023-04-28T04:28:30;8.45;;;6.72;;
14734;SDS011;7458;49.002;8.472;2023-04-28T04:30:56;7.07;;;6.40;;
14734;SDS011;7458;49.002;8.472;2023-04-28T04:33:21;9.77;;;5.97;;
14734;SDS011;7458;49.002;8.472;2023-04-28T04:35:48;7.88;;;5.28;;
14734;SDS011;7458;49.002;8.472;2023-04-28T04:38:13;6.60;;;4.88;;
14734;SDS011;7458;49.002;8.472;2023-04-28T04:40:39;12.25;;;5.40;;
14734;SDS011;7458;49.002;8.472;2023-04-28T04:43:05;12.48;;;6.05;;
14734;SDS011;7458;49.002;8.472;2023-04-28T04:45:31;6.57;;;5.63;;
14734;SDS011;7458;49.002;8.472;2023-04-28T04:47:57;9.07;;;5.63;;
14734;SDS011;7458;49.002;8.472;2023-04-28T04:50:23;6.35;;;5.05;;
14734;SDS011;7458;49.002;8.472;2023-04-28T04:52:49;7.03;;;5.70;;
14734;SDS011;7458;49.002;8.472;2023-04-28T04:55:15;7.57;;;5.63;;
14734;SDS011;7458;49.002;8.472;2023-04-28T04:57:41;9.63;;;6.10;;
14734;SDS011;7458;49.002;8.472;2023-04-28T05:00:07;8.68;;;6.63;;
14734;SDS011;7458;49.002;8.472;2023-04-28T05:02:33;8.30;;;6.38;;
14734;SDS011;7458;49.002;8.472;2023-04-28T05:04:59;6.57;;;5.97;;
14734;SDS011;7458;49.002;8.472;2023-04-28T05:07:25;8.27;;;6.10;;
14734;SDS011;7458;49.002;8.472;2023-04-28T05:09:51;6.57;;;5.45;;
14734;SDS011;7458;49.002;8.472;2023-04-28T05:12:16;8.00;;;5.97;;
14734;SDS011;7458;49.002;8.472;2023-04-28T05:14:42;7.45;;;6.72;;
14734;SDS011;7458;49.002;8.472;2023-04-28T05:17:08;7.63;;;6.63;;
14734;SDS011;7458;49.002;8.472;2023-04-28T05:19:33;6.70;;;6.03;;
14734;SDS011;7458;49.002;8.472;2023-04-28T05:22:00;6.47;;;5.88;;
14734;SDS011;7458;49.002;8.472;2023-04-28T05:24:26;7.35;;;5.90;;
14734;SDS011;7458;49.002;8.472;2023-04-28T05:26:52;8.35;;;6.00;;
14734;SDS011;7458;49.002;8.472;2023-04-28T05:29:22;11.70;;;6.90;;
14734;SDS011;7458;49.002;8.472;2023-04-28T05:31:47;6.10;;;5.50;;
14734;SDS011;7458;49.002;8.472;2023-04-28T05:34:13;6.60;;;5.78;;
14734;SDS011;7458;49.002;8.472;2023-04-28T05:36:39;8.00;;;6.10;;
14734;SDS011;7458;49.002;8.472;2023-04-28T05:39:05;9.65;;;5.88;;
14734;SDS011;7458;49.002;8.472;2023-04-28T05:41:31;6.80;;;5.78;;
14734;SDS011;7458;49.002;8.472;2023-04-28T05:43:59;15.98;;;6.07;;
14734;SDS011;7458;49.002;8.472;2023-04-28T05:46:25;9.60;;;6.43;;
14734;SDS011;7458;49.002;8.472;2023-04-28T05:48:51;7.80;;;5.95;;
14734;SDS011;7458;49.002;8.472;2023-04-28T05:51:17;8.30;;;7.15;;
14734;SDS011;7458;49.002;8.472;2023-04-28T05:53:43;7.40;;;6.60;;
14734;SDS011;7458;49.002;8.472;2023-04-28T05:56:12;6.45;;;5.82;;
14734;SDS011;7458;49.002;8.472;2023-04-28T05:58:40;8.40;;;5.32;;
14734;SDS011;7458;49.002;8.472;2023-04-28T06:01:08;10.68;;;7.72;;
14734;SDS011;7458;49.002;8.472;2023-04-28T06:03:35;6.45;;;5.85;;
14734;SDS011;7458;49.002;8.472;2023-04-28T06:06:01;8.30;;;6.63;;
14734;SDS011;7458;49.002;8.472;2023-04-28T06:08:27;8.13;;;6.47;;
14734;SDS011;7458;49.002;8.472;2023-04-28T06:10:52;6.32;;;5.53;;
14734;SDS011;7458;49.002;8.472;2023-04-28T06:13:19;13.57;;;6.25;;
14734;SDS011;7458;49.002;8.472;2023-04-28T06:15:44;8.82;;;5.88;;
14734;SDS011;7458;49.002;8.472;2023-04-28T06:18:10;7.50;;;6.70;;
14734;SDS011;7458;49.002;8.472;2023-04-28T06:20:36;7.50;;;6.10;;
14734;SDS011;7458;49.002;8.472;2023-04-28T06:23:02;8.45;;;5.68;;
14734;SDS011;7458;49.002;8.472;2023-04-28T06:25:28;7.10;;;6.45;;
14734;SDS011;7458;49.002;8.472;2023-04-28T06:27:54;6.47;;;5.88;;
14734;SDS011;7458;49.002;8.472;2023-04-28T06:30:23;6.90;;;6.10;;
14734;SDS011;7458;49.002;8.472;2023-04-28T06:32:48;8.43;;;5.72;;
14734;SDS011;7458;49.002;8.472;2023-04-28T06:35:15;10.45;;;6.30;;
14734;SDS011;7458;49.002;8.472;2023-04-28T06:37:41;7.00;;;6.15;;
14734;SDS011;7458;49.002;8.472;2023-04-28T06:40:08;6.78;;;6.07;;
14734;SDS011;7458;49.002;8.472;2023-04-28T06:42:38;7.53;;;6.22;;
14734;SDS011;7458;49.002;8.472;2023-04-28T06:45:04;8.93;;;6.13;;
14734;SDS011;7458;49.002;8.472;2023-04-28T06:47:30;9.48;;;6.60;;
14734;SDS011;7458;49.002;8.472;2023-04-28T06:49:56;8.93;;;5.38;;
14734;SDS011;7458;49.002;8.472;2023-04-28T06:52:22;7.70;;;6.15;;
14734;SDS011;7458;49.002;8.472;2023-04-28T06:54:49;8.27;;;6.22;;
14734;SDS011;7458;49.002;8.472;2023-04-28T06:57:15;8.10;;;5.40;;
14734;SDS011;7458;49.002;8.472;2023-04-28T06:59:41;7.47;;;6.40;;
14734;SDS011;7458;49.002;8.472;2023-04-28T07:02:08;7.57;;;6.70;;
14734;SDS011;7458;49.002;8.472;2023-04-28T07:04:35;10.75;;;7.82;;
14734;SDS011;7458;49.002;8.472;2023-04-28T07:07:01;13.10;;;9.68;;
14734;SDS011;7458;49.002;8.472;2023-04-28T07:09:31;7.57;;;6.80;;
14734;SDS011;7458;49.002;8.472;2023-04-28T07:11:57;12.60;;;7.82;;
14734;SDS011;7458;49.002;8.472;2023-04-28T07:14:23;6.72;;;5.53;;
14734;SDS011;7458;49.002;8.472;2023-04-28T07:16:49;6.90;;;6.15;;
14734;SDS011;7458;49.002;8.472;2023-04-28T07:19:15;13.93;;;8.15;;
14734;SDS011;7458;49.002;8.472;2023-04-28T07:21:41;8.73;;;6.95;;
14734;SDS011;7458;49.002;8.472;2023-04-28T07:24:06;13.10;;;9.73;;
14734;SDS011;7458;49.002;8.472;2023-04-28T07:26:33;10.82;;;8.02;;
14734;SDS011;7458;49.002;8.472;2023-04-28T07:28:58;15.27;;;8.43;;
14734;SDS011;7458;49.002;8.472;2023-04-28T07:31:24;9.70;;;7.13;;
14734;SDS011;7458;49.002;8.472;2023-04-28T07:33:50;12.18;;;7.28;;
14734;SDS011;7458;49.002;8.472;2023-04-28T07:36:17;10.88;;;7.53;;
14734;SDS011;7458;49.002;8.472;2023-04-28T07:38:44;9.75;;;8.73;;
14734;SDS011;7458;49.002;8.472;2023-04-28T07:41:10;12.98;;;8.98;;
14734;SDS011;7458;49.002;8.472;2023-04-28T07:43:37;8.60;;;7.68;;
14734;SDS011;7458;49.002;8.472;2023-04-28T07:46:03;11.32;;;9.75;;
14734;SDS011;7458;49.002;8.472;2023-04-28T07:48:33;10.88;;;8.00;;
14734;SDS011;7458;49.002;8.472;2023-04-28T07:50:59;14.50;;;9.15;;
14734;SDS011;7458;49.002;8.472;2023-04-28T07:53:25;10.10;;;9.10;;
14734;SDS011;7458;49.002;8.472;2023-04-28T07:55:51;10.30;;;9.30;;
14734;SDS011;7458;49.002;8.472;2023-04-28T07:58:18;11.43;;;9.75;;
14734;SDS011;7458;49.002;8.472;2023-04-28T08:00:45;11.32;;;9.30;;
14734;SDS011;7458;49.002;8.472;2023-04-28T08:03:10;8.88;;;8.05;;
14734;SDS011;7458;49.002;8.472;2023-04-28T08:05:39;10.25;;;9.13;;
14734;SDS011;7458;49.002;8.472;2023-04-28T08:08:06;13.43;;;8.45;;
14734;SDS011;7458;49.002;8.472;2023-04-28T08:10:32;14.52;;;9.82;;
14734;SDS011;7458;49.002;8.472;2023-04-28T08:12:58;11.25;;;9.77;;
14734;SDS011;7458;49.002;8.472;2023-04-28T08:15:23;9.20;;;8.25;;
14734;SDS011;7458;49.002;8.472;2023-04-28T08:17:51;13.45;;;10.00;;
14734;SDS011;7458;49.002;8.472;2023-04-28T08:20:17;10.93;;;9.88;;
14734;SDS011;7458;49.002;8.472;2023-04-28T08:22:44;11.20;;;9.75;;
14734;SDS011;7458;49.002;8.472;2023-04-28T08:25:10;9.65;;;8.32;;
14734;SDS011;7458;49.002;8.472;2023-04-28T08:27:36;8.88;;;7.57;;
14734;SDS011;7458;49.002;8.472;2023-04-28T08:30:05;9.55;;;7.60;;
14734;SDS011;7458;49.002;8.472;2023-04-28T08:32:34;10.32;;;7.70;;
14734;SDS011;7458;49.002;8.472;2023-04-28T08:35:00;18.92;;;7.82;;
14734;SDS011;7458;49.002;8.472;2023-04-28T08:37:27;12.48;;;9.90;;
14734;SDS011;7458;49.002;8.472;2023-04-28T08:39:54;8.68;;;7.07;;
14734;SDS011;7458;49.002;8.472;2023-04-28T08:42:29;9.23;;;8.32;;
14734;SDS011;7458;49.002;8.472;2023-04-28T08:44:56;11.85;;;8.43;;
14734;SDS011;7458;49.002;8.472;2023-04-28T08:47:32;11.45;;;8.20;;
14734;SDS011;7458;49.002;8.472;2023-04-28T08:50:03;9.70;;;7.10;;
14734;SDS011;7458;49.002;8.472;2023-04-28T08:52:33;8.20;;;7.40;;
14734;SDS011;7458;49.002;8.472;2023-04-28T08:55:01;8.25;;;7.25;;
14734;SDS011;7458;49.002;8.472;2023-04-28T08:57:41;11.30;;;8.20;;
14734;SDS011;7458;49.002;8.472;2023-04-28T09:00:10;14.80;;;7.82;;
14734;SDS011;7458;49.002;8.472;2023-04-28T09:02:36;9.63;;;8.52;;
14734;SDS011;7458;49.002;8.472;2023-04-28T09:05:06;8.15;;;7.35;;
14734;SDS011;7458;49.002;8.472;2023-04-28T09:07:32;15.75;;;8.05;;
14734;SDS011;7458;49.002;8.472;2023-04-28T09:12:42;8.70;;;7.57;;
14734;SDS011;7458;49.002;8.472;2023-04-28T09:15:08;5.78;;;5.18;;
14734;SDS011;7458;49.002;8.472;2023-04-28T09:17:47;7.47;;;6.60;;
14734;SDS011;7458;49.002;8.472;2023-04-28T09:20:21;9.90;;;7.32;;
14734;SDS011;7458;49.002;8.472;2023-04-28T09:22:50;8.10;;;6.00;;
14734;SDS011;7458;49.002;8.472;2023-04-28T09:25:18;11.20;;;5.88;;
14734;SDS011;7458;49.002;8.472;2023-04-28T09:27:46;7.15;;;6.43;;
14734;SDS011;7458;49.002;8.472;2023-04-28T09:30:13;6.45;;;5.78;;
14734;SDS011;7458;49.002;8.472;2023-04-28T09:32:39;7.10;;;6.32;;
14734;SDS011;7458;49.002;8.472;2023-04-28T09:35:06;6.88;;;5.85;;
14734;SDS011;7458;49.002;8.472;2023-04-28T09:37:33;6.72;;;5.97;;
14734;SDS011;7458;49.002;8.472;2023-04-28T09:40:06;8.70;;;6.60;;
14734;SDS011;7458;49.002;8.472;2023-04-28T09:42:41;8.63;;;6.32;;
14734;SDS011;7458;49.002;8.472;2023-04-28T09:45:13;6.70;;;5.72;;
14734;SDS011;7458;49.002;8.472;2023-04-28T09:47:43;6.88;;;6.15;;
14734;SDS011;7458;49.002;8.472;2023-04-28T09:50:12;8.27;;;6.60;;
14734;SDS011;7458;49.002;8.472;2023-04-28T09:52:41;6.72;;;5.28;;
14734;SDS011;7458;49.002;8.472;2023-04-28T09:55:10;5.95;;;5.25;;
14734;SDS011;7458;49.002;8.472;2023-04-28T09:57:37;9.63;;;4.40;;
14734;SDS011;7458;49.002;8.472;2023-04-28T10:00:04;5.75;;;5.15;;
14734;SDS011;7458;49.002;8.472;2023-04-28T10:02:33;8.68;;;5.25;;
14734;SDS011;7458;49.002;8.472;2023-04-28T10:05:01;368.50;;;328.45;;
14734;SDS011;7458;49.002;8.472;2023-04-28T10:07:30;7.45;;;4.97;;
14734;SDS011;7458;49.002;8.472;2023-04-28T10:09:59;6.53;;;4.60;;
14734;SDS011;7458;49.002;8.472;2023-04-28T10:12:26;4.65;;;3.83;;
14734;SDS011;7458;49.002;8.472;2023-04-28T10:14:52;4.25;;;3.85;;
14734;SDS011;7458;49.002;8.472;2023-04-28T10:17:19;4.65;;;3.63;;
14734;SDS011;7458;49.002;8.472;2023-04-28T10:19:47;7.25;;;3.97;;
14734;SDS011;7458;49.002;8.472;2023-04-28T10:22:33;5.32;;;4.35;;
14734;SDS011;7458;49.002;8.472;2023-04-28T10:25:40;6.93;;;4.30;;
14734;SDS011;7458;49.002;8.472;2023-04-28T10:28:07;5.45;;;3.65;;
14734;SDS011;7458;49.002;8.472;2023-04-28T10:30:34;4.55;;;3.63;;
14734;SDS011;7458;49.002;8.472;2023-04-28T10:43:03;4.78;;;4.28;;
14734;SDS011;7458;49.002;8.472;2023-04-28T10:48:21;4.63;;;4.22;;
14734;SDS011;7458;49.002;8.472;2023-04-28T10:56:25;6.68;;;4.30;;
14734;SDS011;7458;49.002;8.472;2023-04-28T11:01:28;8.10;;;5.03;;
14734;SDS011;7458;49.002;8.472;2023-04-28T11:06:41;1279.65;;;999.90;;
14734;SDS011;7458;49.002;8.472;2023-04-28T11:12:03;1294.10;;;999.90;;
14734;SDS011;7458;49.002;8.472;2023-04-28T11:14:35;1284.15;;;999.90;;
14734;SDS011;7458;49.002;8.472;2023-04-28T11:17:08;5.93;;;4.55;;
14734;SDS011;7458;49.002;8.472;2023-04-28T11:19:41;1277.22;;;999.90;;
14734;SDS011;7458;49.002;8.472;2023-04-28T11:22:19;1273.15;;;999.90;;
14734;SDS011;7458;49.002;8.472;2023-04-28T11:25:21;1350.00;;;999.90;;
14734;SDS011;7458;49.002;8.472;2023-04-28T11:27:39;1355.07;;;999.90;;
14734;SDS011;7458;49.002;8.472;2023-04-28T11:30:38;1315.55;;;999.90;;
14734;SDS011;7458;49.002;8.472;2023-04-28T11:32:57;1310.45;;;999.90;;
14734;SDS011;7458;49.002;8.472;2023-04-28T11:35:24;1288.50;;;999.90;;
14734;SDS011;7458;49.002;8.472;2023-04-28T11:38:00;1281.72;;;999.90;;
14734;SDS011;7458;49.002;8.472;2023-04-28T11:40:28;1262.22;;;999.90;;
14734;SDS011;7458;49.002;8.472;2023-04-28T11:42:53;1272.97;;;983.65;;
14734;SDS011;7458;49.002;8.472;2023-04-28T11:45:20;1272.45;;;965.90;;
14734;SDS011;7458;49.002;8.472;2023-04-28T11:47:46;1217.60;;;999.90;;
14734;SDS011;7458;49.002;8.472;2023-04-28T11:50:11;1269.53;;;958.78;;
14734;SDS011;7458;49.002;8.472;2023-04-28T11:52:50;1261.70;;;941.10;;
14734;SDS011;7458;49.002;8.472;2023-04-28T11:55:16;1211.97;;;999.90;;
14734;SDS011;7458;49.002;8.472;2023-04-28T11:57:42;1203.00;;;999.90;;
14734;SDS011;7458;49.002;8.472;2023-04-28T12:00:14;1243.68;;;868.47;;
14734;SDS011;7458;49.002;8.472;2023-04-28T12:02:49;1233.25;;;842.53;;
14734;SDS011;7458;49.002;8.472;2023-04-28T12:05:15;1174.97;;;942.60;;
14734;SDS011;7458;49.002;8.472;2023-04-28T12:07:41;1222.93;;;856.55;;
14734;SDS011;7458;49.002;8.472;2023-04-28T12:10:09;1182.13;;;963.80;;
14734;SDS011;7458;49.002;8.472;2023-04-28T12:12:40;1243.82;;;905.25;;
14734;SDS011;7458;49.002;8.472;2023-04-28T12:15:06;1234.65;;;875.47;;
14734;SDS011;7458;49.002;8.472;2023-04-28T12:17:34;1224.07;;;846.42;;
14734;SDS011;7458;49.002;8.472;2023-04-28T12:20:06;1171.43;;;916.53;;
14734;SDS011;7458;49.002;8.472;2023-04-28T12:22:42;1163.93;;;931.13;;
14734;SDS011;7458;49.002;8.472;2023-04-28T12:25:11;1199.15;;;860.17;;
14734;SDS011;7458;49.002;8.472;2023-04-28T12:27:40;1148.95;;;938.35;;
14734;SDS011;7458;49.002;8.472;2023-04-28T12:32:49;1185.35;;;869.78;;
14734;SDS011;7458;49.002;8.472;2023-04-28T12:35:15;1139.65;;;959.45;;
14734;SDS011;7458;49.002;8.472;2023-04-28T12:37:44;1142.68;;;954.90;;
14734;SDS011;7458;49.002;8.472;2023-04-28T12:40:10;1178.22;;;901.55;;
14734;SDS011;7458;49.002;8.472;2023-04-28T12:42:36;1113.45;;;979.55;;
14734;SDS011;7458;49.002;8.472;2023-04-28T12:45:02;1130.95;;;965.35;;
14734;SDS011;7458;49.002;8.472;2023-04-28T12:47:29;1144.95;;;961.25;;
14734;SDS011;7458;49.002;8.472;2023-04-28T12:49:55;1129.40;;;981.30;;
14734;SDS011;7458;49.002;8.472;2023-04-28T12:52:21;1120.30;;;986.60;;
14734;SDS011;7458;49.002;8.472;2023-04-28T12:54:47;1200.75;;;882.63;;
14734;SDS011;7458;49.002;8.472;2023-04-28T12:57:13;1208.97;;;858.42;;
14734;SDS011;7458;49.002;8.472;2023-04-28T12:59:46;1213.88;;;859.05;;
14734;SDS011;7458;49.002;8.472;2023-04-28T13:02:12;1206.82;;;866.47;;
14734;SDS011;7458;49.002;8.472;2023-04-28T13:04:39;1240.50;;;932.63;;
14734;SDS011;7458;49.002;8.472;2023-04-28T13:07:12;1240.15;;;930.00;;
14734;SDS011;7458;49.002;8.472;2023-04-28T13:09:39;1212.68;;;847.20;;
14734;SDS011;7458;49.002;8.472;2023-04-28T13:12:06;1157.70;;;958.60;;
14734;SDS011;7458;49.002;8.472;2023-04-28T13:14:32;1186.85;;;889.22;;
14734;SDS011;7458;49.002;8.472;2023-04-28T13:16:59;1139.03;;;967.05;;
14734;SDS011;7458;49.002;8.472;2023-04-28T13:19:25;1123.75;;;969.70;;
14734;SDS011;7458;49.002;8.472;2023-04-28T13:21:51;1191.68;;;886.92;;
14734;SDS011;7458;49.002;8.472;2023-04-28T13:24:18;1207.43;;;891.67;;
14734;SDS011;7458;49.002;8.472;2023-04-28T13:26:43;1153.00;;;960.78;;
14734;SDS011;7458;49.002;8.472;2023-04-28T13:29:09;1175.28;;;897.22;;
14734;SDS011;7458;49.002;8.472;2023-04-28T13:31:35;1129.03;;;967.42;;
14734;SDS011;7458;49.002;8.472;2023-04-28T13:34:01;1119.78;;;965.72;;
14734;SDS011;7458;49.002;8.472;2023-04-28T13:36:29;1176.65;;;892.22;;
14734;SDS011;7458;49.002;8.472;2023-04-28T13:38:57;1174.70;;;895.75;;
14734;SDS011;7458;49.002;8.472;2023-04-28T13:41:22;1164.32;;;907.15;;
14734;SDS011;7458;49.002;8.472;2023-04-28T13:43:49;1118.90;;;956.72;;
14734;SDS011;7458;49.002;8.472;2023-04-28T13:46:15;1172.22;;;888.35;;
14734;SDS011;7458;49.002;8.472;2023-04-28T13:48:41;1163.13;;;909.25;;
14734;SDS011;7458;49.002;8.472;2023-04-28T13:51:07;1152.85;;;897.10;;
14734;SDS011;7458;49.002;8.472;2023-04-28T13:53:34;1148.38;;;893.47;;
14734;SDS011;7458;49.002;8.472;2023-04-28T13:56:02;1101.60;;;978.58;;
14734;SDS011;7458;49.002;8.472;2023-04-28T13:58:29;1188.75;;;870.80;;
14734;SDS011;7458;49.002;8.472;2023-04-28T14:00:55;1184.07;;;873.90;;
14734;SDS011;7458;49.002;8.472;2023-04-28T14:03:21;1126.68;;;960.42;;
14734;SDS011;7458;49.002;8.472;2023-04-28T14:05:48;1135.60;;;957.17;;
14734;SDS011;7458;49.002;8.472;2023-04-28T14:08:17;1134.45;;;968.70;;
14734;SDS011;7458;49.002;8.472;2023-04-28T14:10:44;1191.03;;;881.95;;
14734;SDS011;7458;49.002;8.472;2023-04-28T14:13:10;1136.07;;;959.72;;
14734;SDS011;7458;49.002;8.472;2023-04-28T14:15:36;1180.93;;;883.53;;
14734;SDS011;7458;49.002;8.472;2023-04-28T14:18:02;1179.93;;;879.97;;
14734;SDS011;7458;49.002;8.472;2023-04-28T14:20:29;1127.93;;;968.65;;
14734;SDS011;7458;49.002;8.472;2023-04-28T14:22:55;1173.68;;;890.92;;
14734;SDS011;7458;49.002;8.472;2023-04-28T14:25:21;1115.70;;;976.33;;
14734;SDS011;7458;49.002;8.472;2023-04-28T14:27:50;1103.70;;;981.78;;
14734;SDS011;7458;49.002;8.472;2023-04-28T14:30:16;1145.93;;;907.10;;
14734;SDS011;7458;49.002;8.472;2023-04-28T14:32:43;1115.63;;;987.00;;
14734;SDS011;7458;49.002;8.472;2023-04-28T14:35:10;1156.85;;;900.00;;
14734;SDS011;7458;49.002;8.472;2023-04-28T14:37:37;1150.93;;;893.40;;
14734;SDS011;7458;49.002;8.472;2023-04-28T14:40:04;1156.95;;;899.40;;
14734;SDS011;7458;49.002;8.472;2023-04-28T14:42:32;1115.85;;;988.70;;
14734;SDS011;7458;49.002;8.472;2023-04-28T14:45:01;1162.25;;;898.90;;
14734;SDS011;7458;49.002;8.472;2023-04-28T14:47:33;1163.22;;;895.00;;
14734;SDS011;7458;49.002;8.472;2023-04-28T14:50:01;1119.30;;;983.92;;
14734;SDS011;7458;49.002;8.472;2023-04-28T14:52:27;1119.30;;;990.78;;
14734;SDS011;7458;49.002;8.472;2023-04-28T14:54:54;1122.88;;;979.83;;
14734;SDS011;7458;49.002;8.472;2023-04-28T14:57:22;1171.28;;;892.03;;
14734;SDS011;7458;49.002;8.472;2023-04-28T14:59:49;1123.10;;;980.15;;
14734;SDS011;7458;49.002;8.472;2023-04-28T15:02:16;1169.78;;;896.72;;
14734;SDS011;7458;49.002;8.472;2023-04-28T15:04:43;1164.85;;;889.35;;
14734;SDS011;7458;49.002;8.472;2023-04-28T15:07:10;1165.47;;;901.55;;
14734;SDS011;7458;49.002;8.472;2023-04-28T15:09:36;1111.07;;;973.67;;
14734;SDS011;7458;49.002;8.472;2023-04-28T15:12:03;1120.32;;;985.60;;